PWSweather.com
Personal Weather Stations
Station Observations
SUBOTICARS
SuboticaYU

SuboticaYU

Lat: 46.1296717, Lon: 19.641551

Elevation: 361

Station Type: Nexus

http://sumeteo.info

High Low Average
Temperature 32.2°F0.1°C 27.4°F-2.6°C 30.5°F-0.8°C
Dew Point 29.6°F-1.3°C 24.4°F-4.2°C 28.2°F-2.1°C
Winds 10.4 mph 16.7 kmh Calm Calm 5.0 mph E8.0 kmh E
Wind Gusts 13.8 mph22.2 kmh -- 7.0 mph11.3 kmh
Humidity 95% 84% 91%
Pressure 29.36 in994.2 mb 29.15 in987.1 mb -
Precipitation 0.08 in2.0 mm - -
Hour Temp Dew Point Humidity Winds Wind Gusts Pressure Precip Precip Rate Daily Precip Total
12:00 AM 30.4°F-0.9°C 28.9°F-1.7°C 94% 4.6 mph NE7.4 kmh NE 4.6 mph7.4 kmh 29.20 in988.8 mb - 0.00 in0.0 mm 0.00 in0.0 mm
12:10 AM 30.2°F-1.0°C 28.2°F-2.1°C 92% 3.5 mph NE5.6 kmh NE 5.8 mph9.3 kmh 29.20 in988.8 mb - 0.00 in0.0 mm 0.00 in0.0 mm
12:15 AM 30.2°F-1.0°C 28.2°F-2.1°C 92% 3.5 mph NE5.6 kmh NE 3.5 mph5.6 kmh 29.20 in988.8 mb - 0.00 in0.0 mm 0.00 in0.0 mm
12:20 AM 30.2°F-1.0°C 27.9°F-2.3°C 91% 4.6 mph NE7.4 kmh NE 3.5 mph5.6 kmh 29.20 in988.8 mb - 0.00 in0.0 mm 0.00 in0.0 mm
12:25 AM 30.2°F-1.0°C 27.9°F-2.3°C 91% 4.6 mph ENE7.4 kmh ENE 5.8 mph9.3 kmh 29.20 in988.8 mb - 0.00 in0.0 mm 0.00 in0.0 mm
12:30 AM 30.2°F-1.0°C 27.9°F-2.3°C 91% 4.6 mph NE7.4 kmh NE 5.8 mph9.3 kmh 29.20 in988.8 mb - 0.00 in0.0 mm 0.00 in0.0 mm
12:35 AM 30.2°F-1.0°C 27.9°F-2.3°C 91% 3.5 mph NNE5.6 kmh NNE 4.6 mph7.4 kmh 29.20 in988.8 mb - 0.00 in0.0 mm 0.00 in0.0 mm
12:40 AM 30.2°F-1.0°C 27.9°F-2.3°C 91% 5.8 mph NE9.3 kmh NE 8.1 mph13.0 kmh 29.20 in988.8 mb - 0.00 in0.0 mm 0.00 in0.0 mm
12:45 AM 30.2°F-1.0°C 27.9°F-2.3°C 91% 4.6 mph NNE7.4 kmh NNE 3.5 mph5.6 kmh 29.20 in988.8 mb - 0.00 in0.0 mm 0.00 in0.0 mm
12:50 AM 30.0°F-1.1°C 27.7°F-2.4°C 91% 4.6 mph NE7.4 kmh NE 4.6 mph7.4 kmh 29.20 in988.8 mb - 0.00 in0.0 mm 0.00 in0.0 mm
12:55 AM 30.0°F-1.1°C 27.7°F-2.4°C 91% 5.8 mph NE9.3 kmh NE 6.9 mph11.1 kmh 29.20 in988.8 mb - 0.00 in0.0 mm 0.00 in0.0 mm
01:00 AM 30.2°F-1.0°C 27.9°F-2.3°C 91% 3.5 mph E5.6 kmh E 4.6 mph7.4 kmh 29.19 in988.5 mb - 0.00 in0.0 mm 0.00 in0.0 mm
01:10 AM 30.0°F-1.1°C 28.0°F-2.2°C 92% 3.5 mph NE5.6 kmh NE 4.6 mph7.4 kmh 29.19 in988.5 mb - 0.00 in0.0 mm 0.00 in0.0 mm
01:15 AM 30.1°F-1.1°C 28.0°F-2.2°C 92% 3.5 mph NNE5.6 kmh NNE 4.6 mph7.4 kmh 29.18 in988.1 mb - 0.00 in0.0 mm 0.00 in0.0 mm
01:20 AM 30.0°F-1.1°C 28.5°F-1.9°C 94% 5.8 mph NE9.3 kmh NE 5.8 mph9.3 kmh 29.18 in988.1 mb - 0.00 in0.0 mm 0.00 in0.0 mm
01:25 AM 30.0°F-1.1°C 28.5°F-1.9°C 94% 4.6 mph NNE7.4 kmh NNE 5.8 mph9.3 kmh 29.18 in988.1 mb - 0.00 in0.0 mm 0.00 in0.0 mm
01:30 AM 30.0°F-1.1°C 28.5°F-1.9°C 94% 4.6 mph NE7.4 kmh NE 6.9 mph11.1 kmh 29.18 in988.1 mb - 0.00 in0.0 mm 0.00 in0.0 mm
01:35 AM 30.0°F-1.1°C 28.5°F-1.9°C 94% 5.8 mph NE9.3 kmh NE 5.8 mph9.3 kmh 29.18 in988.1 mb - 0.00 in0.0 mm 0.00 in0.0 mm
01:40 AM 30.0°F-1.1°C 28.5°F-1.9°C 94% 3.5 mph NNE5.6 kmh NNE 4.6 mph7.4 kmh 29.18 in988.1 mb - 0.00 in0.0 mm 0.00 in0.0 mm
01:45 AM 30.0°F-1.1°C 28.8°F-1.8°C 95% 4.6 mph NE7.4 kmh NE 6.9 mph11.1 kmh 29.18 in988.1 mb - 0.00 in0.0 mm 0.00 in0.0 mm
01:50 AM 30.0°F-1.1°C 28.8°F-1.8°C 95% 4.6 mph NNE7.4 kmh NNE 4.6 mph7.4 kmh 29.18 in988.1 mb - 0.00 in0.0 mm 0.00 in0.0 mm
01:55 AM 30.0°F-1.1°C 28.8°F-1.8°C 95% 4.6 mph NNE7.4 kmh NNE 5.8 mph9.3 kmh 29.18 in988.1 mb - 0.00 in0.0 mm 0.00 in0.0 mm
02:00 AM 30.0°F-1.1°C 28.8°F-1.8°C 95% 5.8 mph NNE9.3 kmh NNE 6.9 mph11.1 kmh 29.18 in988.1 mb - 0.00 in0.0 mm 0.00 in0.0 mm
02:10 AM 30.0°F-1.1°C 28.8°F-1.8°C 95% 5.8 mph NNE9.3 kmh NNE 8.1 mph13.0 kmh 29.18 in988.1 mb - 0.00 in0.0 mm 0.00 in0.0 mm
02:15 AM 30.0°F-1.1°C 28.8°F-1.8°C 95% 5.8 mph NE9.3 kmh NE 5.8 mph9.3 kmh 29.18 in988.1 mb - 0.00 in0.0 mm 0.00 in0.0 mm
02:20 AM 29.8°F-1.2°C 28.6°F-1.9°C 95% 4.6 mph N7.4 kmh N 4.6 mph7.4 kmh 29.18 in988.1 mb - 0.00 in0.0 mm 0.00 in0.0 mm
02:25 AM 30.0°F-1.1°C 28.8°F-1.8°C 95% 6.9 mph ENE11.1 kmh ENE 9.2 mph14.8 kmh 29.18 in988.1 mb - 0.00 in0.0 mm 0.00 in0.0 mm
02:30 AM 29.8°F-1.2°C 28.6°F-1.9°C 95% 5.8 mph NE9.3 kmh NE 5.8 mph9.3 kmh 29.18 in988.1 mb - 0.00 in0.0 mm 0.00 in0.0 mm
02:35 AM 29.8°F-1.2°C 28.6°F-1.9°C 95% 5.8 mph NE9.3 kmh NE 8.1 mph13.0 kmh 29.18 in988.1 mb - 0.00 in0.0 mm 0.00 in0.0 mm
02:40 AM 29.8°F-1.2°C 28.6°F-1.9°C 95% 5.8 mph NNE9.3 kmh NNE 8.1 mph13.0 kmh 29.18 in988.1 mb - 0.00 in0.0 mm 0.00 in0.0 mm
02:45 AM 29.8°F-1.2°C 28.6°F-1.9°C 95% 5.8 mph NE9.3 kmh NE 10.4 mph16.7 kmh 29.18 in988.1 mb - 0.00 in0.0 mm 0.00 in0.0 mm
02:50 AM 29.8°F-1.2°C 28.6°F-1.9°C 95% 5.8 mph NNW9.3 kmh NNW 4.6 mph7.4 kmh 29.18 in988.1 mb - 0.00 in0.0 mm 0.00 in0.0 mm
02:55 AM 29.8°F-1.2°C 28.6°F-1.9°C 95% 5.8 mph NNE9.3 kmh NNE 6.9 mph11.1 kmh 29.18 in988.1 mb - 0.00 in0.0 mm 0.00 in0.0 mm
03:00 AM 29.8°F-1.2°C 28.6°F-1.9°C 95% 3.5 mph NNW5.6 kmh NNW 4.6 mph7.4 kmh 29.17 in987.8 mb - 0.00 in0.0 mm 0.00 in0.0 mm
03:10 AM 29.7°F-1.3°C 28.4°F-2.0°C 95% 4.6 mph NE7.4 kmh NE 6.9 mph11.1 kmh 29.17 in987.8 mb - 0.00 in0.0 mm 0.00 in0.0 mm
03:15 AM 29.7°F-1.3°C 28.4°F-2.0°C 95% 3.5 mph NE5.6 kmh NE 4.6 mph7.4 kmh 29.17 in987.8 mb - 0.00 in0.0 mm 0.00 in0.0 mm
03:20 AM 29.5°F-1.4°C 28.2°F-2.1°C 95% 6.9 mph N11.1 kmh N 6.9 mph11.1 kmh 29.17 in987.8 mb - 0.00 in0.0 mm 0.00 in0.0 mm
03:25 AM 29.5°F-1.4°C 28.2°F-2.1°C 95% 4.6 mph NNE7.4 kmh NNE 4.6 mph7.4 kmh 29.17 in987.8 mb - 0.00 in0.0 mm 0.00 in0.0 mm
03:30 AM 29.5°F-1.4°C 28.2°F-2.1°C 95% 6.9 mph N11.1 kmh N 8.1 mph13.0 kmh 29.17 in987.8 mb - 0.00 in0.0 mm 0.00 in0.0 mm
03:35 AM 29.5°F-1.4°C 28.2°F-2.1°C 95% 6.9 mph NNE11.1 kmh NNE 9.2 mph14.8 kmh 29.17 in987.8 mb - 0.00 in0.0 mm 0.00 in0.0 mm
03:40 AM 29.3°F-1.5°C 28.0°F-2.2°C 95% 6.9 mph NE11.1 kmh NE 9.2 mph14.8 kmh 29.17 in987.8 mb - 0.00 in0.0 mm 0.00 in0.0 mm
03:45 AM 29.3°F-1.5°C 28.0°F-2.2°C 95% 5.8 mph NE9.3 kmh NE 8.1 mph13.0 kmh 29.17 in987.8 mb - 0.00 in0.0 mm 0.00 in0.0 mm
03:50 AM 29.3°F-1.5°C 28.0°F-2.2°C 95% 6.9 mph NNE11.1 kmh NNE 6.9 mph11.1 kmh 29.17 in987.8 mb - 0.00 in0.0 mm 0.00 in0.0 mm
03:55 AM 29.1°F-1.6°C 27.9°F-2.3°C 95% 8.1 mph NNE13.0 kmh NNE 9.2 mph14.8 kmh 29.17 in987.8 mb - 0.00 in0.0 mm 0.00 in0.0 mm
04:00 AM 29.1°F-1.6°C 27.9°F-2.3°C 95% 8.1 mph NNE13.0 kmh NNE 8.1 mph13.0 kmh 29.16 in987.5 mb - 0.00 in0.0 mm 0.00 in0.0 mm
04:10 AM 29.1°F-1.6°C 27.9°F-2.3°C 95% 6.9 mph N11.1 kmh N 6.9 mph11.1 kmh 29.16 in987.5 mb - 0.00 in0.0 mm 0.00 in0.0 mm
04:15 AM 29.1°F-1.6°C 27.9°F-2.3°C 95% 8.1 mph NNE13.0 kmh NNE 8.1 mph13.0 kmh 29.16 in987.5 mb - 0.00 in0.0 mm 0.00 in0.0 mm
04:20 AM 29.1°F-1.6°C 27.9°F-2.3°C 95% 5.8 mph NE9.3 kmh NE 5.8 mph9.3 kmh 29.16 in987.5 mb - 0.00 in0.0 mm 0.00 in0.0 mm
04:25 AM 29.1°F-1.6°C 27.9°F-2.3°C 95% 8.1 mph NE13.0 kmh NE 11.5 mph18.5 kmh 29.16 in987.5 mb - 0.00 in0.0 mm 0.00 in0.0 mm
04:30 AM 29.3°F-1.5°C 28.0°F-2.2°C 95% 6.9 mph NNE11.1 kmh NNE 6.9 mph11.1 kmh 29.16 in987.5 mb - 0.00 in0.0 mm 0.00 in0.0 mm
04:35 AM 29.3°F-1.5°C 28.0°F-2.2°C 95% 8.1 mph NNE13.0 kmh NNE 8.1 mph13.0 kmh 29.16 in987.5 mb - 0.00 in0.0 mm 0.00 in0.0 mm
04:40 AM 29.3°F-1.5°C 28.0°F-2.2°C 95% 6.9 mph NNE11.1 kmh NNE 11.5 mph18.5 kmh 29.16 in987.5 mb - 0.00 in0.0 mm 0.00 in0.0 mm
04:45 AM 29.4°F-1.4°C 28.1°F-2.2°C 95% 6.9 mph ENE11.1 kmh ENE 5.8 mph9.3 kmh 29.16 in987.5 mb - 0.00 in0.0 mm 0.00 in0.0 mm
04:50 AM 29.5°F-1.4°C 28.2°F-2.1°C 95% 5.8 mph N9.3 kmh N 5.8 mph9.3 kmh 29.16 in987.5 mb - 0.00 in0.0 mm 0.00 in0.0 mm
04:55 AM 29.5°F-1.4°C 28.2°F-2.1°C 95% 5.8 mph NE9.3 kmh NE 8.1 mph13.0 kmh 29.16 in987.5 mb - 0.00 in0.0 mm 0.00 in0.0 mm
05:00 AM 29.5°F-1.4°C 28.2°F-2.1°C 95% 6.9 mph NNE11.1 kmh NNE 9.2 mph14.8 kmh 29.16 in987.5 mb - 0.00 in0.0 mm 0.00 in0.0 mm
05:10 AM 29.6°F-1.3°C 28.4°F-2.0°C 95% 4.6 mph N7.4 kmh N 8.1 mph13.0 kmh 29.16 in987.5 mb - 0.00 in0.0 mm 0.00 in0.0 mm
05:15 AM 29.7°F-1.3°C 28.4°F-2.0°C 95% 6.9 mph NNE11.1 kmh NNE 5.8 mph9.3 kmh 29.15 in987.1 mb - 0.00 in0.0 mm 0.00 in0.0 mm
05:20 AM 29.7°F-1.3°C 28.4°F-2.0°C 95% 6.9 mph NNE11.1 kmh NNE 11.5 mph18.5 kmh 29.15 in987.1 mb - 0.00 in0.0 mm 0.00 in0.0 mm
05:25 AM 29.7°F-1.3°C 28.4°F-2.0°C 95% 6.9 mph NE11.1 kmh NE 4.6 mph7.4 kmh 29.15 in987.1 mb - 0.00 in0.0 mm 0.00 in0.0 mm
05:30 AM 29.8°F-1.2°C 28.6°F-1.9°C 95% 9.2 mph N14.8 kmh N 11.5 mph18.5 kmh 29.15 in987.1 mb - 0.00 in0.0 mm 0.00 in0.0 mm
05:35 AM 29.8°F-1.2°C 28.6°F-1.9°C 95% 10.4 mph NNE16.7 kmh NNE 13.8 mph22.2 kmh 29.15 in987.1 mb - 0.00 in0.0 mm 0.00 in0.0 mm
05:40 AM 29.8°F-1.2°C 28.6°F-1.9°C 95% 5.8 mph NE9.3 kmh NE 10.4 mph16.7 kmh 29.15 in987.1 mb - 0.00 in0.0 mm 0.00 in0.0 mm
05:45 AM 29.8°F-1.2°C 28.6°F-1.9°C 95% 5.8 mph NNE9.3 kmh NNE 6.9 mph11.1 kmh 29.15 in987.1 mb - 0.00 in0.0 mm 0.00 in0.0 mm
05:50 AM 30.0°F-1.1°C 28.8°F-1.8°C 95% 5.8 mph NNE9.3 kmh NNE 9.2 mph14.8 kmh 29.15 in987.1 mb - 0.00 in0.0 mm 0.00 in0.0 mm
05:55 AM 30.0°F-1.1°C 28.8°F-1.8°C 95% 6.9 mph NNE11.1 kmh NNE 5.8 mph9.3 kmh 29.15 in987.1 mb - 0.00 in0.0 mm 0.00 in0.0 mm
06:00 AM 30.0°F-1.1°C 28.8°F-1.8°C 95% 6.9 mph NE11.1 kmh NE 10.4 mph16.7 kmh 29.16 in987.5 mb - 0.00 in0.0 mm 0.00 in0.0 mm
06:10 AM 30.2°F-1.0°C 28.9°F-1.7°C 95% 8.1 mph NNE13.0 kmh NNE 9.2 mph14.8 kmh 29.16 in987.5 mb - 0.00 in0.0 mm 0.00 in0.0 mm
06:15 AM 30.2°F-1.0°C 28.9°F-1.7°C 95% 6.9 mph NE11.1 kmh NE 9.2 mph14.8 kmh 29.17 in987.8 mb - 0.00 in0.0 mm 0.00 in0.0 mm
06:20 AM 30.2°F-1.0°C 28.9°F-1.7°C 95% 9.2 mph NE14.8 kmh NE 11.5 mph18.5 kmh 29.17 in987.8 mb - 0.00 in0.0 mm 0.00 in0.0 mm
06:25 AM 30.4°F-0.9°C 29.1°F-1.6°C 95% 5.8 mph NE9.3 kmh NE 8.1 mph13.0 kmh 29.17 in987.8 mb - 0.00 in0.0 mm 0.00 in0.0 mm
06:30 AM 30.4°F-0.9°C 29.1°F-1.6°C 95% 5.8 mph N9.3 kmh N 9.2 mph14.8 kmh 29.17 in987.8 mb - 0.00 in0.0 mm 0.00 in0.0 mm
06:35 AM 30.4°F-0.9°C 29.1°F-1.6°C 95% 5.8 mph NE9.3 kmh NE 6.9 mph11.1 kmh 29.17 in987.8 mb - 0.00 in0.0 mm 0.00 in0.0 mm
06:40 AM 30.4°F-0.9°C 29.1°F-1.6°C 95% 8.1 mph N13.0 kmh N 10.4 mph16.7 kmh 29.17 in987.8 mb - 0.00 in0.0 mm 0.00 in0.0 mm
06:45 AM 30.4°F-0.9°C 29.1°F-1.6°C 95% 5.8 mph NE9.3 kmh NE 9.2 mph14.8 kmh 29.18 in988.1 mb - 0.00 in0.0 mm 0.00 in0.0 mm
06:50 AM 30.4°F-0.9°C 29.1°F-1.6°C 95% 5.8 mph NE9.3 kmh NE 6.9 mph11.1 kmh 29.18 in988.1 mb - 0.00 in0.0 mm 0.00 in0.0 mm
06:55 AM 30.4°F-0.9°C 29.1°F-1.6°C 95% 8.1 mph N13.0 kmh N 8.1 mph13.0 kmh 29.18 in988.1 mb - 0.00 in0.0 mm 0.00 in0.0 mm
07:00 AM 30.4°F-0.9°C 29.1°F-1.6°C 95% 8.1 mph NNE13.0 kmh NNE 10.4 mph16.7 kmh 29.17 in987.8 mb - 0.00 in0.0 mm 0.00 in0.0 mm
07:10 AM 30.4°F-0.9°C 29.1°F-1.6°C 95% 5.8 mph NNE9.3 kmh NNE 5.8 mph9.3 kmh 29.17 in987.8 mb - 0.00 in0.0 mm 0.00 in0.0 mm
07:15 AM 30.4°F-0.9°C 29.1°F-1.6°C 95% 6.9 mph NNE11.1 kmh NNE 6.9 mph11.1 kmh 29.18 in988.1 mb - 0.00 in0.0 mm 0.00 in0.0 mm
07:20 AM 30.4°F-0.9°C 29.1°F-1.6°C 95% 4.6 mph NNW7.4 kmh NNW 4.6 mph7.4 kmh 29.18 in988.1 mb - 0.00 in0.0 mm 0.00 in0.0 mm
07:25 AM 30.4°F-0.9°C 29.1°F-1.6°C 95% 5.8 mph NNE9.3 kmh NNE 9.2 mph14.8 kmh 29.18 in988.1 mb - 0.00 in0.0 mm 0.00 in0.0 mm
07:30 AM 30.4°F-0.9°C 29.1°F-1.6°C 95% 6.9 mph NNE11.1 kmh NNE 6.9 mph11.1 kmh 29.18 in988.1 mb - 0.00 in0.0 mm 0.00 in0.0 mm
07:35 AM 30.2°F-1.0°C 28.9°F-1.7°C 95% 5.8 mph NNE9.3 kmh NNE 8.1 mph13.0 kmh 29.18 in988.1 mb - 0.00 in0.0 mm 0.00 in0.0 mm
07:40 AM 30.2°F-1.0°C 28.9°F-1.7°C 95% 5.8 mph NE9.3 kmh NE 6.9 mph11.1 kmh 29.18 in988.1 mb - 0.00 in0.0 mm 0.00 in0.0 mm
07:45 AM 30.2°F-1.0°C 28.9°F-1.7°C 95% 5.8 mph NNE9.3 kmh NNE 8.1 mph13.0 kmh 29.18 in988.1 mb - 0.00 in0.0 mm 0.00 in0.0 mm
07:50 AM 30.2°F-1.0°C 28.7°F-1.8°C 94% 8.1 mph NNE13.0 kmh NNE 8.1 mph13.0 kmh 29.18 in988.1 mb - 0.00 in0.0 mm 0.00 in0.0 mm
07:55 AM 30.2°F-1.0°C 28.2°F-2.1°C 92% 6.9 mph NNE11.1 kmh NNE 9.2 mph14.8 kmh 29.18 in988.1 mb - 0.00 in0.0 mm 0.00 in0.0 mm
08:00 AM 30.0°F-1.1°C 27.7°F-2.4°C 91% 6.9 mph NNW11.1 kmh NNW 10.4 mph16.7 kmh 29.18 in988.1 mb - 0.00 in0.0 mm 0.00 in0.0 mm
08:10 AM 30.0°F-1.1°C 27.4°F-2.6°C 90% 8.1 mph NNE13.0 kmh NNE 8.1 mph13.0 kmh 29.18 in988.1 mb - 0.00 in0.0 mm 0.00 in0.0 mm
08:15 AM 29.9°F-1.2°C 27.0°F-2.8°C 89% 6.9 mph NNE11.1 kmh NNE 5.8 mph9.3 kmh 29.18 in988.1 mb - 0.00 in0.0 mm 0.00 in0.0 mm
08:20 AM 30.0°F-1.1°C 27.2°F-2.7°C 89% 8.1 mph NNE13.0 kmh NNE 10.4 mph16.7 kmh 29.18 in988.1 mb - 0.00 in0.0 mm 0.00 in0.0 mm
08:25 AM 29.8°F-1.2°C 27.0°F-2.8°C 89% 9.2 mph N14.8 kmh N 10.4 mph16.7 kmh 29.18 in988.1 mb - 0.01 in0.3 mm 0.01 in0.3 mm
08:30 AM 29.8°F-1.2°C 26.7°F-2.9°C 88% 8.1 mph NNE13.0 kmh NNE 9.2 mph14.8 kmh 29.18 in988.1 mb - 0.01 in0.3 mm 0.01 in0.3 mm
08:35 AM 30.0°F-1.1°C 26.9°F-2.8°C 88% 8.1 mph NE13.0 kmh NE 9.2 mph14.8 kmh 29.18 in988.1 mb - 0.01 in0.3 mm 0.01 in0.3 mm
08:40 AM 30.1°F-1.1°C 27.0°F-2.8°C 88% 5.8 mph NNE9.3 kmh NNE 5.8 mph9.3 kmh 29.18 in988.1 mb - 0.01 in0.3 mm 0.01 in0.3 mm
08:45 AM 30.1°F-1.1°C 26.9°F-2.8°C 88% 5.8 mph NE9.3 kmh NE 5.8 mph9.3 kmh 29.19 in988.5 mb - 0.01 in0.3 mm 0.01 in0.3 mm
08:50 AM 30.2°F-1.0°C 27.1°F-2.7°C 88% 5.8 mph N9.3 kmh N 10.4 mph16.7 kmh 29.19 in988.5 mb - 0.01 in0.3 mm 0.01 in0.3 mm
08:55 AM 30.2°F-1.0°C 26.8°F-2.9°C 87% 6.9 mph NNE11.1 kmh NNE 8.1 mph13.0 kmh 29.19 in988.5 mb - 0.01 in0.3 mm 0.01 in0.3 mm
09:00 AM 30.0°F-1.1°C 26.6°F-3.0°C 87% 5.8 mph NNE9.3 kmh NNE 9.2 mph14.8 kmh 29.19 in988.5 mb - 0.01 in0.3 mm 0.01 in0.3 mm
09:10 AM 30.0°F-1.1°C 26.9°F-2.8°C 88% 8.1 mph NNE13.0 kmh NNE 10.4 mph16.7 kmh 29.19 in988.5 mb - 0.01 in0.3 mm 0.01 in0.3 mm
09:15 AM 30.0°F-1.1°C 27.2°F-2.7°C 89% 9.2 mph NE14.8 kmh NE 12.7 mph20.4 kmh 29.19 in988.5 mb - 0.01 in0.3 mm 0.01 in0.3 mm
09:20 AM 30.2°F-1.0°C 27.6°F-2.4°C 90% 6.9 mph NE11.1 kmh NE 8.1 mph13.0 kmh 29.19 in988.5 mb - 0.01 in0.3 mm 0.01 in0.3 mm
09:25 AM 30.2°F-1.0°C 27.9°F-2.3°C 91% 5.8 mph NNE9.3 kmh NNE 8.1 mph13.0 kmh 29.19 in988.5 mb - 0.00 in0.0 mm 0.01 in0.3 mm
09:30 AM 30.4°F-0.9°C 28.3°F-2.1°C 92% 6.9 mph NNW11.1 kmh NNW 6.9 mph11.1 kmh 29.19 in988.5 mb - 0.00 in0.0 mm 0.01 in0.3 mm
09:35 AM 30.6°F-0.8°C 28.5°F-1.9°C 92% 8.1 mph NNW13.0 kmh NNW 8.1 mph13.0 kmh 29.19 in988.5 mb - 0.00 in0.0 mm 0.01 in0.3 mm
09:40 AM 30.6°F-0.8°C 28.5°F-1.9°C 92% 6.9 mph NNE11.1 kmh NNE 6.9 mph11.1 kmh 29.19 in988.5 mb - 0.00 in0.0 mm 0.01 in0.3 mm
09:45 AM 30.9°F-0.6°C 28.9°F-1.7°C 92% 8.1 mph N13.0 kmh N 10.4 mph16.7 kmh 29.19 in988.5 mb - 0.00 in0.0 mm 0.01 in0.3 mm
09:50 AM 30.9°F-0.6°C 28.9°F-1.7°C 92% 6.9 mph NW11.1 kmh NW 8.1 mph13.0 kmh 29.19 in988.5 mb - 0.00 in0.0 mm 0.01 in0.3 mm
09:55 AM 30.9°F-0.6°C 28.6°F-1.9°C 91% 6.9 mph NNE11.1 kmh NNE 6.9 mph11.1 kmh 29.19 in988.5 mb - 0.00 in0.0 mm 0.01 in0.3 mm
10:00 AM 31.1°F-0.5°C 28.8°F-1.8°C 91% 6.9 mph N11.1 kmh N 6.9 mph11.1 kmh 29.19 in988.5 mb - 0.00 in0.0 mm 0.01 in0.3 mm
10:10 AM 31.5°F-0.3°C 29.1°F-1.6°C 91% 9.2 mph NNE14.8 kmh NNE 5.8 mph9.3 kmh 29.19 in988.5 mb - 0.00 in0.0 mm 0.01 in0.3 mm
10:15 AM 31.5°F-0.3°C 29.1°F-1.6°C 91% 9.2 mph NE14.8 kmh NE 10.4 mph16.7 kmh 29.19 in988.5 mb - 0.00 in0.0 mm 0.01 in0.3 mm
10:20 AM 31.5°F-0.3°C 29.1°F-1.6°C 91% 8.1 mph NNE13.0 kmh NNE 10.4 mph16.7 kmh 29.19 in988.5 mb - 0.00 in0.0 mm 0.01 in0.3 mm
10:25 AM 31.5°F-0.3°C 29.1°F-1.6°C 91% 8.1 mph NE13.0 kmh NE 10.4 mph16.7 kmh 29.19 in988.5 mb - 0.00 in0.0 mm 0.01 in0.3 mm
10:30 AM 31.5°F-0.3°C 29.1°F-1.6°C 91% 8.1 mph N13.0 kmh N 10.4 mph16.7 kmh 29.20 in988.8 mb - 0.00 in0.0 mm 0.01 in0.3 mm
10:35 AM 31.5°F-0.3°C 29.1°F-1.6°C 91% 8.1 mph NNE13.0 kmh NNE 8.1 mph13.0 kmh 29.20 in988.8 mb - 0.00 in0.0 mm 0.01 in0.3 mm
10:40 AM 31.5°F-0.3°C 29.1°F-1.6°C 91% 5.8 mph N9.3 kmh N 5.8 mph9.3 kmh 29.20 in988.8 mb - 0.00 in0.0 mm 0.01 in0.3 mm
10:45 AM 31.6°F-0.2°C 29.6°F-1.3°C 92% 5.8 mph NE9.3 kmh NE 10.4 mph16.7 kmh 29.20 in988.8 mb - 0.01 in0.3 mm 0.02 in0.5 mm
10:50 AM 31.6°F-0.2°C 29.6°F-1.3°C 92% 8.1 mph NE13.0 kmh NE 8.1 mph13.0 kmh 29.20 in988.8 mb - 0.01 in0.3 mm 0.02 in0.5 mm
10:55 AM 31.5°F-0.3°C 29.1°F-1.6°C 91% 5.8 mph NE9.3 kmh NE 6.9 mph11.1 kmh 29.20 in988.8 mb - 0.01 in0.3 mm 0.02 in0.5 mm
11:00 AM 31.5°F-0.3°C 28.9°F-1.7°C 90% 6.9 mph NNE11.1 kmh NNE 10.4 mph16.7 kmh 29.20 in988.8 mb - 0.01 in0.3 mm 0.02 in0.5 mm
11:10 AM 31.5°F-0.3°C 28.6°F-1.9°C 89% 6.9 mph NNE11.1 kmh NNE 8.1 mph13.0 kmh 29.20 in988.8 mb - 0.01 in0.3 mm 0.02 in0.5 mm
11:15 AM 31.5°F-0.3°C 28.6°F-1.9°C 89% 6.9 mph NNE11.1 kmh NNE 9.2 mph14.8 kmh 29.20 in988.8 mb - 0.01 in0.3 mm 0.02 in0.5 mm
11:20 AM 31.6°F-0.2°C 28.8°F-1.8°C 89% 8.1 mph NNE13.0 kmh NNE 11.5 mph18.5 kmh 29.20 in988.8 mb - 0.01 in0.3 mm 0.02 in0.5 mm
11:25 AM 31.5°F-0.3°C 28.6°F-1.9°C 89% 8.1 mph N13.0 kmh N 8.1 mph13.0 kmh 29.20 in988.8 mb - 0.01 in0.3 mm 0.02 in0.5 mm
11:30 AM 31.5°F-0.3°C 28.6°F-1.9°C 89% 8.1 mph NNE13.0 kmh NNE 10.4 mph16.7 kmh 29.20 in988.8 mb - 0.01 in0.3 mm 0.02 in0.5 mm
11:35 AM 31.5°F-0.3°C 28.9°F-1.7°C 90% 8.1 mph N13.0 kmh N 10.4 mph16.7 kmh 29.20 in988.8 mb - 0.01 in0.3 mm 0.02 in0.5 mm
11:40 AM 31.5°F-0.3°C 28.9°F-1.7°C 90% 6.9 mph NE11.1 kmh NE 9.2 mph14.8 kmh 29.20 in988.8 mb - 0.01 in0.3 mm 0.02 in0.5 mm
11:45 AM 31.6°F-0.2°C 29.3°F-1.5°C 91% 5.8 mph NE9.3 kmh NE 6.9 mph11.1 kmh 29.20 in988.8 mb - 0.00 in0.0 mm 0.02 in0.5 mm
11:50 AM 31.6°F-0.2°C 29.3°F-1.5°C 91% 8.1 mph NE13.0 kmh NE 12.7 mph20.4 kmh 29.20 in988.8 mb - 0.00 in0.0 mm 0.02 in0.5 mm
11:55 AM 31.6°F-0.2°C 29.3°F-1.5°C 91% 6.9 mph NE11.1 kmh NE 8.1 mph13.0 kmh 29.20 in988.8 mb - 0.00 in0.0 mm 0.02 in0.5 mm
12:00 PM 31.6°F-0.2°C 29.3°F-1.5°C 91% 5.8 mph N9.3 kmh N 5.8 mph9.3 kmh 29.20 in988.8 mb - 0.00 in0.0 mm 0.02 in0.5 mm
12:10 PM 31.6°F-0.2°C 29.3°F-1.5°C 91% 4.6 mph N7.4 kmh N 8.1 mph13.0 kmh 29.20 in988.8 mb - 0.00 in0.0 mm 0.02 in0.5 mm
12:15 PM 31.8°F-0.1°C 29.5°F-1.4°C 91% 8.1 mph N13.0 kmh N 8.1 mph13.0 kmh 29.20 in988.8 mb - 0.00 in0.0 mm 0.02 in0.5 mm
12:20 PM 31.8°F-0.1°C 29.2°F-1.6°C 90% 5.8 mph NE9.3 kmh NE 6.9 mph11.1 kmh 29.20 in988.8 mb - 0.00 in0.0 mm 0.02 in0.5 mm
12:25 PM 32.0°F0.0°C 29.4°F-1.4°C 90% 6.9 mph NNE11.1 kmh NNE 8.1 mph13.0 kmh 29.20 in988.8 mb - 0.00 in0.0 mm 0.02 in0.5 mm
12:30 PM 32.0°F0.0°C 29.4°F-1.4°C 90% 5.8 mph NE9.3 kmh NE 9.2 mph14.8 kmh 29.20 in988.8 mb - 0.00 in0.0 mm 0.02 in0.5 mm
12:35 PM 32.2°F0.1°C 29.3°F-1.5°C 89% 5.8 mph NE9.3 kmh NE 6.9 mph11.1 kmh 29.20 in988.8 mb - 0.00 in0.0 mm 0.02 in0.5 mm
12:40 PM 32.0°F0.0°C 29.1°F-1.6°C 89% 6.9 mph NNW11.1 kmh NNW 10.4 mph16.7 kmh 29.20 in988.8 mb - 0.00 in0.0 mm 0.02 in0.5 mm
12:45 PM 32.0°F0.0°C 28.8°F-1.8°C 88% 6.9 mph N11.1 kmh N 6.9 mph11.1 kmh 29.20 in988.8 mb - 0.00 in0.0 mm 0.02 in0.5 mm
12:50 PM 32.0°F0.0°C 28.8°F-1.8°C 88% 6.9 mph NNE11.1 kmh NNE 9.2 mph14.8 kmh 29.20 in988.8 mb - 0.00 in0.0 mm 0.02 in0.5 mm
12:55 PM 32.0°F0.0°C 29.1°F-1.6°C 89% 5.8 mph NNE9.3 kmh NNE 8.1 mph13.0 kmh 29.20 in988.8 mb - 0.00 in0.0 mm 0.02 in0.5 mm
01:00 PM 32.1°F0.1°C 29.3°F-1.5°C 89% 3.5 mph NE5.6 kmh NE 4.6 mph7.4 kmh 29.20 in988.8 mb - 0.00 in0.0 mm 0.02 in0.5 mm
01:10 PM 32.2°F0.1°C 29.3°F-1.5°C 89% 6.9 mph NE11.1 kmh NE 3.5 mph5.6 kmh 29.20 in988.8 mb - 0.00 in0.0 mm 0.02 in0.5 mm
01:15 PM 32.0°F0.0°C 29.1°F-1.6°C 89% 5.8 mph NNE9.3 kmh NNE 8.1 mph13.0 kmh 29.20 in988.8 mb - 0.00 in0.0 mm 0.02 in0.5 mm
01:20 PM 32.2°F0.1°C 29.3°F-1.5°C 89% 6.9 mph NNE11.1 kmh NNE 5.8 mph9.3 kmh 29.20 in988.8 mb - 0.00 in0.0 mm 0.02 in0.5 mm
01:25 PM 32.0°F0.0°C 29.1°F-1.6°C 89% 8.1 mph NE13.0 kmh NE 10.4 mph16.7 kmh 29.20 in988.8 mb - 0.00 in0.0 mm 0.02 in0.5 mm
01:30 PM 32.2°F0.1°C 29.6°F-1.3°C 90% 5.8 mph NE9.3 kmh NE 8.1 mph13.0 kmh 29.21 in989.2 mb - 0.00 in0.0 mm 0.02 in0.5 mm
01:35 PM 32.2°F0.1°C 29.6°F-1.3°C 90% 4.6 mph ENE7.4 kmh ENE 4.6 mph7.4 kmh 29.21 in989.2 mb - 0.00 in0.0 mm 0.02 in0.5 mm
01:40 PM 32.2°F0.1°C 29.6°F-1.3°C 90% 5.8 mph NNW9.3 kmh NNW 4.6 mph7.4 kmh 29.21 in989.2 mb - 0.00 in0.0 mm 0.02 in0.5 mm
01:45 PM 32.0°F0.0°C 29.1°F-1.6°C 89% 5.8 mph NNW9.3 kmh NNW 9.2 mph14.8 kmh 29.21 in989.2 mb - 0.00 in0.0 mm 0.02 in0.5 mm
01:50 PM 32.2°F0.1°C 29.3°F-1.5°C 89% 5.8 mph NNE9.3 kmh NNE 8.1 mph13.0 kmh 29.21 in989.2 mb - 0.00 in0.0 mm 0.02 in0.5 mm
01:55 PM 32.2°F0.1°C 29.3°F-1.5°C 89% 6.9 mph NNE11.1 kmh NNE 8.1 mph13.0 kmh 29.21 in989.2 mb - 0.00 in0.0 mm 0.02 in0.5 mm
02:00 PM 32.2°F0.1°C 29.3°F-1.5°C 89% 6.9 mph NNW11.1 kmh NNW 6.9 mph11.1 kmh 29.20 in988.8 mb - 0.00 in0.0 mm 0.02 in0.5 mm
02:10 PM 32.2°F0.1°C 29.3°F-1.5°C 89% 4.6 mph N7.4 kmh N 5.8 mph9.3 kmh 29.20 in988.8 mb - 0.00 in0.0 mm 0.02 in0.5 mm
02:15 PM 32.2°F0.1°C 29.3°F-1.5°C 89% 6.9 mph NE11.1 kmh NE 9.2 mph14.8 kmh 29.21 in989.2 mb - 0.00 in0.0 mm 0.02 in0.5 mm
02:20 PM 32.2°F0.1°C 29.0°F-1.7°C 88% 6.9 mph NE11.1 kmh NE 8.1 mph13.0 kmh 29.21 in989.2 mb - 0.00 in0.0 mm 0.02 in0.5 mm
02:25 PM 32.0°F0.0°C 28.9°F-1.7°C 88% 5.8 mph NE9.3 kmh NE 5.8 mph9.3 kmh 29.21 in989.2 mb - 0.00 in0.0 mm 0.02 in0.5 mm
02:30 PM 32.1°F0.1°C 28.9°F-1.7°C 88% 4.6 mph NNW7.4 kmh NNW 4.6 mph7.4 kmh 29.22 in989.5 mb - 0.00 in0.0 mm 0.02 in0.5 mm
02:35 PM 32.0°F0.0°C 28.8°F-1.8°C 88% 4.6 mph NE7.4 kmh NE 3.5 mph5.6 kmh 29.22 in989.5 mb - 0.00 in0.0 mm 0.02 in0.5 mm
02:40 PM 32.0°F0.0°C 28.8°F-1.8°C 88% 4.6 mph NNE7.4 kmh NNE 6.9 mph11.1 kmh 29.22 in989.5 mb - 0.00 in0.0 mm 0.02 in0.5 mm
02:45 PM 32.0°F0.0°C 28.6°F-1.9°C 87% 5.8 mph NE9.3 kmh NE 8.1 mph13.0 kmh 29.23 in989.8 mb - 0.00 in0.0 mm 0.02 in0.5 mm
02:50 PM 32.0°F0.0°C 28.6°F-1.9°C 87% 4.6 mph NE7.4 kmh NE 5.8 mph9.3 kmh 29.23 in989.8 mb - 0.00 in0.0 mm 0.02 in0.5 mm
02:55 PM 32.0°F0.0°C 28.6°F-1.9°C 87% 4.6 mph NNE7.4 kmh NNE 4.6 mph7.4 kmh 29.23 in989.8 mb - 0.00 in0.0 mm 0.02 in0.5 mm
03:00 PM 32.0°F0.0°C 28.6°F-1.9°C 87% 4.6 mph NNE7.4 kmh NNE 6.9 mph11.1 kmh 29.24 in990.2 mb - 0.00 in0.0 mm 0.02 in0.5 mm
03:10 PM 32.0°F0.0°C 28.6°F-1.9°C 87% 4.6 mph NE7.4 kmh NE 5.8 mph9.3 kmh 29.24 in990.2 mb - 0.00 in0.0 mm 0.02 in0.5 mm
03:15 PM 32.0°F0.0°C 28.6°F-1.9°C 87% 4.6 mph NE7.4 kmh NE 5.8 mph9.3 kmh 29.23 in989.8 mb - 0.00 in0.0 mm 0.02 in0.5 mm
03:20 PM 32.0°F0.0°C 28.3°F-2.1°C 86% 5.8 mph NE9.3 kmh NE 8.1 mph13.0 kmh 29.23 in989.8 mb - 0.00 in0.0 mm 0.02 in0.5 mm
03:25 PM 32.0°F0.0°C 28.3°F-2.1°C 86% 6.9 mph NNE11.1 kmh NNE 6.9 mph11.1 kmh 29.23 in989.8 mb - 0.00 in0.0 mm 0.02 in0.5 mm
03:30 PM 31.8°F-0.1°C 27.5°F-2.5°C 84% 4.6 mph NE7.4 kmh NE 6.9 mph11.1 kmh 29.24 in990.2 mb - 0.00 in0.0 mm 0.02 in0.5 mm
03:35 PM 31.8°F-0.1°C 28.1°F-2.2°C 86% 4.6 mph NE7.4 kmh NE 5.8 mph9.3 kmh 29.24 in990.2 mb - 0.00 in0.0 mm 0.02 in0.5 mm
03:40 PM 31.8°F-0.1°C 28.1°F-2.2°C 86% 3.5 mph NE5.6 kmh NE 4.6 mph7.4 kmh 29.24 in990.2 mb - 0.00 in0.0 mm 0.02 in0.5 mm
03:45 PM 31.6°F-0.2°C 27.9°F-2.3°C 86% 3.5 mph NNE5.6 kmh NNE 4.6 mph7.4 kmh 29.25 in990.5 mb - 0.00 in0.0 mm 0.02 in0.5 mm
03:50 PM 31.6°F-0.2°C 27.9°F-2.3°C 86% 3.5 mph NE5.6 kmh NE 6.9 mph11.1 kmh 29.25 in990.5 mb - 0.00 in0.0 mm 0.02 in0.5 mm
03:55 PM 31.5°F-0.3°C 27.8°F-2.3°C 86% 4.6 mph NNE7.4 kmh NNE 6.9 mph11.1 kmh 29.25 in990.5 mb - 0.00 in0.0 mm 0.02 in0.5 mm
04:00 PM 31.5°F-0.3°C 27.8°F-2.3°C 86% 4.6 mph NNE7.4 kmh NNE 5.8 mph9.3 kmh 29.25 in990.5 mb - 0.00 in0.0 mm 0.02 in0.5 mm
04:10 PM 31.3°F-0.4°C 27.6°F-2.4°C 86% 2.3 mph NNE3.7 kmh NNE 4.6 mph7.4 kmh 29.25 in990.5 mb - 0.00 in0.0 mm 0.02 in0.5 mm
04:15 PM 31.3°F-0.4°C 27.9°F-2.3°C 87% 4.6 mph 7.4 kmh 4.6 mph7.4 kmh 29.25 in990.5 mb - 0.00 in0.0 mm 0.02 in0.5 mm
04:20 PM 31.3°F-0.4°C 27.9°F-2.3°C 87% 4.6 mph NNE7.4 kmh NNE 5.8 mph9.3 kmh 29.25 in990.5 mb - 0.00 in0.0 mm 0.02 in0.5 mm
04:25 PM 31.3°F-0.4°C 28.1°F-2.2°C 88% 4.6 mph NE7.4 kmh NE 5.8 mph9.3 kmh 29.25 in990.5 mb - 0.00 in0.0 mm 0.02 in0.5 mm
04:30 PM 31.1°F-0.5°C 28.0°F-2.2°C 88% 4.6 mph ENE7.4 kmh ENE 3.5 mph5.6 kmh 29.25 in990.5 mb - 0.00 in0.0 mm 0.02 in0.5 mm
04:35 PM 31.1°F-0.5°C 27.9°F-2.3°C 88% 3.5 mph NNE5.6 kmh NNE 5.8 mph9.3 kmh 29.25 in990.5 mb - 0.00 in0.0 mm 0.02 in0.5 mm
04:40 PM 30.9°F-0.6°C 27.8°F-2.3°C 88% 3.5 mph NE5.6 kmh NE 5.8 mph9.3 kmh 29.25 in990.5 mb - 0.00 in0.0 mm 0.02 in0.5 mm
04:45 PM 30.9°F-0.6°C 28.1°F-2.2°C 89% 4.6 mph NE7.4 kmh NE 4.6 mph7.4 kmh 29.25 in990.5 mb - 0.00 in0.0 mm 0.02 in0.5 mm
04:50 PM 30.9°F-0.6°C 28.1°F-2.2°C 89% 3.5 mph NNE5.6 kmh NNE 3.5 mph5.6 kmh 29.25 in990.5 mb - 0.00 in0.0 mm 0.02 in0.5 mm
04:55 PM 30.9°F-0.6°C 28.1°F-2.2°C 89% 3.5 mph N5.6 kmh N 3.5 mph5.6 kmh 29.25 in990.5 mb - 0.00 in0.0 mm 0.02 in0.5 mm
05:00 PM 30.9°F-0.6°C 28.3°F-2.1°C 90% 4.6 mph NE7.4 kmh NE 4.6 mph7.4 kmh 29.25 in990.5 mb - 0.00 in0.0 mm 0.02 in0.5 mm
05:10 PM 30.7°F-0.7°C 28.2°F-2.1°C 90% 3.5 mph NE5.6 kmh NE 5.8 mph9.3 kmh 29.25 in990.5 mb - 0.00 in0.0 mm 0.02 in0.5 mm
05:15 PM 30.7°F-0.7°C 28.2°F-2.1°C 90% 3.5 mph NE5.6 kmh NE 3.5 mph5.6 kmh 29.25 in990.5 mb - 0.00 in0.0 mm 0.02 in0.5 mm
05:20 PM 30.7°F-0.7°C 28.2°F-2.1°C 90% 3.5 mph N5.6 kmh N 3.5 mph5.6 kmh 29.25 in990.5 mb - 0.00 in0.0 mm 0.02 in0.5 mm
05:25 PM 30.7°F-0.7°C 28.2°F-2.1°C 90% 3.5 mph N5.6 kmh N 3.5 mph5.6 kmh 29.25 in990.5 mb - 0.00 in0.0 mm 0.02 in0.5 mm
05:30 PM 30.7°F-0.7°C 28.2°F-2.1°C 90% 3.5 mph NNE5.6 kmh NNE 4.6 mph7.4 kmh 29.26 in990.9 mb - 0.00 in0.0 mm 0.02 in0.5 mm
05:35 PM 30.7°F-0.7°C 28.1°F-2.2°C 90% 2.3 mph NNW3.7 kmh NNW 3.5 mph5.6 kmh 29.26 in990.9 mb - 0.00 in0.0 mm 0.02 in0.5 mm
05:40 PM 30.6°F-0.8°C 28.0°F-2.2°C 90% 3.5 mph NNE5.6 kmh NNE 4.6 mph7.4 kmh 29.26 in990.9 mb - 0.00 in0.0 mm 0.02 in0.5 mm
05:45 PM 30.6°F-0.8°C 28.2°F-2.1°C 91% 3.5 mph N5.6 kmh N 3.5 mph5.6 kmh 29.26 in990.9 mb - 0.00 in0.0 mm 0.02 in0.5 mm
05:50 PM 30.7°F-0.7°C 28.4°F-2.0°C 91% 3.5 mph NNW5.6 kmh NNW 4.6 mph7.4 kmh 29.26 in990.9 mb - 0.00 in0.0 mm 0.02 in0.5 mm
05:55 PM 30.7°F-0.7°C 28.4°F-2.0°C 91% 3.5 mph N5.6 kmh N 3.5 mph5.6 kmh 29.26 in990.9 mb - 0.00 in0.0 mm 0.02 in0.5 mm
06:00 PM 30.7°F-0.7°C 28.4°F-2.0°C 91% 2.3 mph NNW3.7 kmh NNW 2.3 mph3.7 kmh 29.27 in991.2 mb - 0.00 in0.0 mm 0.02 in0.5 mm
06:10 PM 30.7°F-0.7°C 28.4°F-2.0°C 91% 3.5 mph N5.6 kmh N 3.5 mph5.6 kmh 29.27 in991.2 mb - 0.00 in0.0 mm 0.02 in0.5 mm
06:15 PM 30.6°F-0.8°C 28.2°F-2.1°C 91% 3.5 mph NNE5.6 kmh NNE 3.5 mph5.6 kmh 29.28 in991.5 mb - 0.00 in0.0 mm 0.02 in0.5 mm
06:20 PM 30.6°F-0.8°C 28.0°F-2.2°C 90% 3.5 mph NNE5.6 kmh NNE 3.5 mph5.6 kmh 29.28 in991.5 mb - 0.00 in0.0 mm 0.02 in0.5 mm
06:25 PM 30.6°F-0.8°C 28.0°F-2.2°C 90% 4.6 mph NE7.4 kmh NE 5.8 mph9.3 kmh 29.28 in991.5 mb - 0.00 in0.0 mm 0.02 in0.5 mm
06:30 PM 30.6°F-0.8°C 28.0°F-2.2°C 90% 3.5 mph NNE5.6 kmh NNE 3.5 mph5.6 kmh 29.29 in991.9 mb - 0.00 in0.0 mm 0.02 in0.5 mm
06:35 PM 30.6°F-0.8°C 28.0°F-2.2°C 90% 3.5 mph N5.6 kmh N 4.6 mph7.4 kmh 29.29 in991.9 mb - 0.00 in0.0 mm 0.02 in0.5 mm
06:40 PM 30.6°F-0.8°C 28.0°F-2.2°C 90% 3.5 mph NNE5.6 kmh NNE 3.5 mph5.6 kmh 29.29 in991.9 mb - 0.00 in0.0 mm 0.02 in0.5 mm
06:45 PM 30.6°F-0.8°C 28.0°F-2.2°C 90% 3.5 mph NNE5.6 kmh NNE 3.5 mph5.6 kmh 29.29 in991.9 mb - 0.00 in0.0 mm 0.02 in0.5 mm
06:50 PM 30.6°F-0.8°C 28.0°F-2.2°C 90% 3.5 mph NNE5.6 kmh NNE 3.5 mph5.6 kmh 29.29 in991.9 mb - 0.00 in0.0 mm 0.02 in0.5 mm
06:55 PM 30.6°F-0.8°C 28.0°F-2.2°C 90% 3.5 mph NNE5.6 kmh NNE 3.5 mph5.6 kmh 29.29 in991.9 mb - 0.00 in0.0 mm 0.02 in0.5 mm
07:00 PM 30.4°F-0.9°C 27.8°F-2.3°C 90% 3.5 mph N5.6 kmh N 3.5 mph5.6 kmh 29.30 in992.2 mb - 0.00 in0.0 mm 0.02 in0.5 mm
07:10 PM 30.4°F-0.9°C 27.8°F-2.3°C 90% 4.6 mph NNE7.4 kmh NNE 5.8 mph9.3 kmh 29.30 in992.2 mb - 0.00 in0.0 mm 0.02 in0.5 mm
07:15 PM 30.4°F-0.9°C 27.8°F-2.3°C 90% 3.5 mph NNE5.6 kmh NNE 5.8 mph9.3 kmh 29.30 in992.2 mb - 0.00 in0.0 mm 0.02 in0.5 mm
07:20 PM 30.4°F-0.9°C 27.8°F-2.3°C 90% 3.5 mph NE5.6 kmh NE 4.6 mph7.4 kmh 29.30 in992.2 mb - 0.00 in0.0 mm 0.02 in0.5 mm
07:25 PM 30.4°F-0.9°C 27.8°F-2.3°C 90% 4.6 mph NNE7.4 kmh NNE 3.5 mph5.6 kmh 29.30 in992.2 mb - 0.00 in0.0 mm 0.02 in0.5 mm
07:30 PM 30.4°F-0.9°C 27.8°F-2.3°C 90% 3.5 mph NNE5.6 kmh NNE 5.8 mph9.3 kmh 29.30 in992.2 mb - 0.00 in0.0 mm 0.02 in0.5 mm
07:35 PM 30.4°F-0.9°C 27.8°F-2.3°C 90% 4.6 mph NNE7.4 kmh NNE 5.8 mph9.3 kmh 29.30 in992.2 mb - 0.00 in0.0 mm 0.02 in0.5 mm
07:40 PM 30.4°F-0.9°C 27.8°F-2.3°C 90% 3.5 mph NNE5.6 kmh NNE 5.8 mph9.3 kmh 29.30 in992.2 mb - 0.00 in0.0 mm 0.02 in0.5 mm
07:45 PM 30.4°F-0.9°C 27.8°F-2.3°C 90% 2.3 mph NE3.7 kmh NE 3.5 mph5.6 kmh 29.31 in992.6 mb - 0.02 in0.5 mm 0.04 in1.0 mm
07:50 PM 30.4°F-0.9°C 27.8°F-2.3°C 90% 2.3 mph NE3.7 kmh NE 2.3 mph3.7 kmh 29.31 in992.6 mb - 0.02 in0.5 mm 0.04 in1.0 mm
07:55 PM 30.4°F-0.9°C 27.8°F-2.3°C 90% 2.3 mph NE3.7 kmh NE 3.5 mph5.6 kmh 29.31 in992.6 mb - 0.02 in0.5 mm 0.04 in1.0 mm
08:00 PM 30.4°F-0.9°C 27.8°F-2.3°C 90% 3.5 mph NNE5.6 kmh NNE 3.5 mph5.6 kmh 29.32 in992.9 mb - 0.02 in0.5 mm 0.04 in1.0 mm
08:10 PM 30.4°F-0.9°C 27.8°F-2.3°C 90% 5.8 mph NE9.3 kmh NE 6.9 mph11.1 kmh 29.32 in992.9 mb - 0.02 in0.5 mm 0.04 in1.0 mm
08:15 PM 30.4°F-0.9°C 27.8°F-2.3°C 90% 5.8 mph NNE9.3 kmh NNE 8.1 mph13.0 kmh 29.31 in992.6 mb - 0.02 in0.5 mm 0.04 in1.0 mm
08:20 PM 30.4°F-0.9°C 27.8°F-2.3°C 90% 4.6 mph NE7.4 kmh NE 5.8 mph9.3 kmh 29.31 in992.6 mb - 0.02 in0.5 mm 0.04 in1.0 mm
08:25 PM 30.2°F-1.0°C 27.6°F-2.4°C 90% 5.8 mph NE9.3 kmh NE 9.2 mph14.8 kmh 29.31 in992.6 mb - 0.02 in0.5 mm 0.04 in1.0 mm
08:30 PM 30.2°F-1.0°C 27.6°F-2.4°C 90% 5.8 mph NE9.3 kmh NE 6.9 mph11.1 kmh 29.32 in992.9 mb - 0.02 in0.5 mm 0.04 in1.0 mm
08:35 PM 30.2°F-1.0°C 27.6°F-2.4°C 90% 5.8 mph NE9.3 kmh NE 8.1 mph13.0 kmh 29.32 in992.9 mb - 0.02 in0.5 mm 0.04 in1.0 mm
08:40 PM 30.2°F-1.0°C 27.6°F-2.4°C 90% 3.5 mph N5.6 kmh N 4.6 mph7.4 kmh 29.32 in992.9 mb - 0.02 in0.5 mm 0.04 in1.0 mm
08:45 PM 30.0°F-1.1°C 27.4°F-2.6°C 90% 5.8 mph N9.3 kmh N 8.1 mph13.0 kmh 29.32 in992.9 mb - 0.00 in0.0 mm 0.04 in1.0 mm
08:50 PM 30.0°F-1.1°C 27.4°F-2.6°C 90% 4.6 mph NE7.4 kmh NE 3.5 mph5.6 kmh 29.32 in992.9 mb - 0.00 in0.0 mm 0.04 in1.0 mm
08:55 PM 30.0°F-1.1°C 27.2°F-2.7°C 89% 4.6 mph NNE7.4 kmh NNE 4.6 mph7.4 kmh 29.32 in992.9 mb - 0.00 in0.0 mm 0.04 in1.0 mm
09:00 PM 29.8°F-1.2°C 27.0°F-2.8°C 89% 4.6 mph NNE7.4 kmh NNE 6.9 mph11.1 kmh 29.32 in992.9 mb - 0.00 in0.0 mm 0.04 in1.0 mm
09:10 PM 29.8°F-1.2°C 27.0°F-2.8°C 89% 2.3 mph 3.7 kmh 2.3 mph3.7 kmh 29.32 in992.9 mb - 0.00 in0.0 mm 0.04 in1.0 mm
09:15 PM 29.8°F-1.2°C 27.3°F-2.6°C 90% 3.5 mph NNE5.6 kmh NNE 4.6 mph7.4 kmh 29.33 in993.2 mb - 0.00 in0.0 mm 0.04 in1.0 mm
09:20 PM 29.8°F-1.2°C 27.3°F-2.6°C 90% 3.5 mph NNW5.6 kmh NNW 3.5 mph5.6 kmh 29.33 in993.2 mb - 0.00 in0.0 mm 0.04 in1.0 mm
09:25 PM 29.8°F-1.2°C 27.3°F-2.6°C 90% 3.5 mph N5.6 kmh N 3.5 mph5.6 kmh 29.33 in993.2 mb - 0.00 in0.0 mm 0.04 in1.0 mm
09:30 PM 29.8°F-1.2°C 27.3°F-2.6°C 90% 2.3 mph NNW3.7 kmh NNW 3.5 mph5.6 kmh 29.34 in993.6 mb - 0.00 in0.0 mm 0.04 in1.0 mm
09:35 PM 29.8°F-1.2°C 27.3°F-2.6°C 90% 2.3 mph NNE3.7 kmh NNE 4.6 mph7.4 kmh 29.34 in993.6 mb - 0.00 in0.0 mm 0.04 in1.0 mm
09:40 PM 29.8°F-1.2°C 27.3°F-2.6°C 90% 2.3 mph N3.7 kmh N 3.5 mph5.6 kmh 29.34 in993.6 mb - 0.00 in0.0 mm 0.04 in1.0 mm
09:45 PM 29.8°F-1.2°C 27.3°F-2.6°C 90% Calm Calm -- 29.34 in993.6 mb - 0.00 in0.0 mm 0.04 in1.0 mm
09:50 PM 29.8°F-1.2°C 27.3°F-2.6°C 90% 1.2 mph NNE1.9 kmh NNE 1.2 mph1.9 kmh 29.34 in993.6 mb - 0.00 in0.0 mm 0.04 in1.0 mm
09:55 PM 29.8°F-1.2°C 27.2°F-2.7°C 90% Calm Calm -- 29.34 in993.6 mb - 0.00 in0.0 mm 0.04 in1.0 mm
10:00 PM 29.7°F-1.3°C 27.1°F-2.7°C 90% 1.2 mph NNE1.9 kmh NNE 3.5 mph5.6 kmh 29.35 in993.9 mb - 0.00 in0.0 mm 0.04 in1.0 mm
10:10 PM 29.7°F-1.3°C 27.1°F-2.7°C 90% 2.3 mph NNW3.7 kmh NNW 3.5 mph5.6 kmh 29.35 in993.9 mb - 0.00 in0.0 mm 0.04 in1.0 mm
10:15 PM 29.7°F-1.3°C 27.1°F-2.7°C 90% Calm Calm 2.3 mph3.7 kmh 29.34 in993.6 mb - 0.00 in0.0 mm 0.04 in1.0 mm
10:20 PM 29.7°F-1.3°C 27.1°F-2.7°C 90% 1.2 mph NNW1.9 kmh NNW 1.2 mph1.9 kmh 29.34 in993.6 mb - 0.04 in1.0 mm 0.08 in2.0 mm
10:25 PM 29.7°F-1.3°C 27.1°F-2.7°C 90% 1.2 mph NNW1.9 kmh NNW 2.3 mph3.7 kmh 29.34 in993.6 mb - 0.04 in1.0 mm 0.08 in2.0 mm
10:30 PM 29.7°F-1.3°C 27.1°F-2.7°C 90% 1.2 mph NNW1.9 kmh NNW 2.3 mph3.7 kmh 29.35 in993.9 mb - 0.04 in1.0 mm 0.08 in2.0 mm
10:35 PM 29.7°F-1.3°C 27.1°F-2.7°C 90% 2.3 mph 3.7 kmh 2.3 mph3.7 kmh 29.35 in993.9 mb - 0.04 in1.0 mm 0.08 in2.0 mm
10:40 PM 29.8°F-1.2°C 27.3°F-2.6°C 90% 2.3 mph NNW3.7 kmh NNW 3.5 mph5.6 kmh 29.35 in993.9 mb - 0.04 in1.0 mm 0.08 in2.0 mm
10:45 PM 29.8°F-1.2°C 27.3°F-2.6°C 90% 2.3 mph NNW3.7 kmh NNW 3.5 mph5.6 kmh 29.35 in993.9 mb - 0.04 in1.0 mm 0.08 in2.0 mm
10:50 PM 29.7°F-1.3°C 27.1°F-2.7°C 90% 4.6 mph NNW7.4 kmh NNW 5.8 mph9.3 kmh 29.35 in993.9 mb - 0.04 in1.0 mm 0.08 in2.0 mm
10:55 PM 29.7°F-1.3°C 27.1°F-2.7°C 90% 2.3 mph WNW3.7 kmh WNW 3.5 mph5.6 kmh 29.35 in993.9 mb - 0.04 in1.0 mm 0.08 in2.0 mm
11:00 PM 29.5°F-1.4°C 26.9°F-2.8°C 90% 4.6 mph NNW7.4 kmh NNW 5.8 mph9.3 kmh 29.36 in994.2 mb - 0.04 in1.0 mm 0.08 in2.0 mm
11:10 PM 28.9°F-1.7°C 26.4°F-3.1°C 90% 4.6 mph WNW7.4 kmh WNW 6.9 mph11.1 kmh 29.36 in994.2 mb - 0.04 in1.0 mm 0.08 in2.0 mm
11:15 PM 28.6°F-1.9°C 26.0°F-3.3°C 90% 6.9 mph NNW11.1 kmh NNW 6.9 mph11.1 kmh 29.35 in993.9 mb - 0.04 in1.0 mm 0.08 in2.0 mm
11:20 PM 28.6°F-1.9°C 26.0°F-3.3°C 90% 6.9 mph NW11.1 kmh NW 8.1 mph13.0 kmh 29.35 in993.9 mb - 0.00 in0.0 mm 0.08 in2.0 mm
11:25 PM 28.2°F-2.1°C 25.7°F-3.5°C 90% 8.1 mph NNE13.0 kmh NNE 8.1 mph13.0 kmh 29.35 in993.9 mb - 0.00 in0.0 mm 0.08 in2.0 mm
11:30 PM 28.0°F-2.2°C 25.2°F-3.8°C 89% 6.9 mph NNW11.1 kmh NNW 10.4 mph16.7 kmh 29.36 in994.2 mb - 0.00 in0.0 mm 0.08 in2.0 mm
11:35 PM 27.9°F-2.3°C 25.0°F-3.9°C 89% 4.6 mph NNW7.4 kmh NNW 5.8 mph9.3 kmh 29.36 in994.2 mb - 0.00 in0.0 mm 0.08 in2.0 mm
11:40 PM 27.9°F-2.3°C 25.0°F-3.9°C 89% 4.6 mph NW7.4 kmh NW 5.8 mph9.3 kmh 29.36 in994.2 mb - 0.00 in0.0 mm 0.08 in2.0 mm
11:45 PM 27.7°F-2.4°C 24.9°F-3.9°C 89% 5.8 mph NW9.3 kmh NW 6.9 mph11.1 kmh 29.36 in994.2 mb - 0.00 in0.0 mm 0.08 in2.0 mm
11:50 PM 27.5°F-2.5°C 24.7°F-4.1°C 89% 5.8 mph N9.3 kmh N 5.8 mph9.3 kmh 29.36 in994.2 mb - 0.00 in0.0 mm 0.08 in2.0 mm
11:55 PM 27.4°F-2.6°C 24.4°F-4.2°C 88% 6.9 mph NNW11.1 kmh NNW 6.9 mph11.1 kmh 29.36 in994.2 mb - 0.00 in0.0 mm 0.08 in2.0 mm